Aviation Digital Data Service (ADDS)

Output produced by TAFs form (1844 UTC 27 July 2017)
found at http://aviationweather.gov/adds/tafs/
 
KHOB 271723Z 2718/2818 14008KT P6SM SCT250 
     FM272100 12011G18KT P6SM FEW090 SCT250 
     FM280700 15004KT P6SM SCT250